Time;durP1;ratioP1;P1;durP2;ratioP2;P2;SDS_P1;SDS_P2;PMS_P1;PMS_P2;Temp;Humidity;BMP_temperature;BMP_pressure;BME280_temperature;BME280_humidity;BME280_pressure;Samples;Min_cycle;Max_cycle;Signal;HPM_P1;HPM_P2
2024/01/18 00:00:05;;;;;;;27.75;23.02;;;-1.30;99.90;;;;;;3112968;28;20033;-73
2024/01/18 00:01:36;;;;;;;27.17;22.23;;;-1.40;99.90;;;;;;3125243;28;20052;-72
2024/01/18 00:03:07;;;;;;;26.05;22.88;;;-0.70;99.90;;;;;;3129814;28;20089;-73
2024/01/18 00:04:40;;;;;;;26.13;23.27;;;-1.40;99.90;;;;;;3142900;28;20226;-72
2024/01/18 00:06:11;;;;;;;23.70;21.45;;;-1.40;99.90;;;;;;3131064;28;20034;-73
2024/01/18 00:07:41;;;;;;;27.58;24.67;;;-1.40;99.90;;;;;;3130988;28;20128;-75
2024/01/18 00:09:12;;;;;;;25.10;22.60;;;-1.40;99.90;;;;;;3126681;28;20362;-76
2024/01/18 00:10:43;;;;;;;29.80;25.20;;;-1.10;99.90;;;;;;3126856;28;20083;-73
2024/01/18 00:12:14;;;;;;;29.10;25.17;;;-1.50;99.90;;;;;;3131588;28;20314;-75
2024/01/18 00:13:45;;;;;;;23.95;21.38;;;-0.50;99.90;;;;;;3130126;28;20053;-74
2024/01/18 00:15:16;;;;;;;29.08;26.02;;;-1.00;99.90;;;;;;3130873;28;20022;-75
2024/01/18 00:16:46;;;;;;;27.55;24.65;;;-1.50;99.90;;;;;;3131368;28;20211;-75
2024/01/18 00:18:17;;;;;;;28.85;26.02;;;-1.50;99.90;;;;;;3143209;28;20249;-75
2024/01/18 00:19:48;;;;;;;27.30;24.38;;;-1.50;99.90;;;;;;3135590;28;20026;-74
2024/01/18 00:21:18;;;;;;;25.90;23.13;;;-1.50;99.90;;;;;;3135599;28;20496;-75
2024/01/18 00:22:50;;;;;;;30.15;25.80;;;;;;;;;;3132849;28;20017;-74
2024/01/18 00:24:20;;;;;;;26.17;23.65;;;-1.50;99.90;;;;;;3126424;28;20017;-74
2024/01/18 00:25:52;;;;;;;28.92;25.15;;;-1.50;99.90;;;;;;3131268;28;20346;-74
2024/01/18 00:27:22;;;;;;;25.42;22.38;;;-1.50;99.90;;;;;;3142829;28;20041;-75
2024/01/18 00:28:53;;;;;;;26.05;23.45;;;-1.30;99.90;;;;;;3135614;28;20048;-75
2024/01/18 00:30:24;;;;;;;24.30;21.85;;;-1.50;99.90;;;;;;3130432;28;20056;-74
2024/01/18 00:31:54;;;;;;;25.33;22.65;;;-1.50;99.90;;;;;;3130728;28;20131;-74
2024/01/18 00:33:26;;;;;;;31.77;24.83;;;-1.50;99.90;;;;;;3129978;28;20025;-74
2024/01/18 00:34:57;;;;;;;25.48;20.90;;;-0.90;99.90;;;;;;3142610;28;20024;-74
2024/01/18 00:36:28;;;;;;;25.50;22.88;;;-1.50;99.90;;;;;;3135275;28;20041;-76
2024/01/18 00:37:59;;;;;;;28.67;25.95;;;-1.50;99.90;;;;;;3119226;28;20026;-73
2024/01/18 00:39:29;;;;;;;30.13;26.20;;;-1.50;99.90;;;;;;3130762;28;20045;-74
2024/01/18 00:41:00;;;;;;;25.67;23.00;;;-1.50;99.90;;;;;;3119655;28;20107;-75
2024/01/18 00:42:31;;;;;;;25.63;22.90;;;-1.50;99.90;;;;;;3129912;28;20068;-75
2024/01/18 00:44:02;;;;;;;29.83;22.60;;;-0.70;99.90;;;;;;3143094;28;20025;-74
2024/01/18 00:45:33;;;;;;;28.85;24.25;;;-1.50;99.90;;;;;;3135220;28;20056;-75
2024/01/18 00:47:03;;;;;;;25.55;22.83;;;-1.40;99.90;;;;;;3130546;28;20103;-75
2024/01/18 00:48:34;;;;;;;26.95;24.33;;;-1.50;99.90;;;;;;3130571;28;20041;-76
2024/01/18 00:50:06;;;;;;;25.85;22.45;;;-1.40;99.90;;;;;;3126266;28;20061;-73
2024/01/18 00:51:36;;;;;;;27.30;24.52;;;-1.50;99.90;;;;;;3132205;28;20055;-73
2024/01/18 00:53:07;;;;;;;27.08;23.80;;;-1.30;99.90;;;;;;3137572;28;20044;-74
2024/01/18 00:54:38;;;;;;;27.13;24.23;;;-1.50;99.90;;;;;;3131485;28;20037;-74
2024/01/18 00:56:11;;;;;;;28.00;22.95;;;-0.50;99.90;;;;;;3143360;28;20028;-73
2024/01/18 00:57:42;;;;;;;29.77;26.45;;;-1.50;99.90;;;;;;3119182;28;20041;-74
2024/01/18 00:59:12;;;;;;;29.85;24.23;;;-1.50;99.90;;;;;;3127613;28;20044;-74
2024/01/18 01:00:43;;;;;;;26.58;23.95;;;-0.60;99.90;;;;;;3118409;28;20026;-74
2024/01/18 01:02:14;;;;;;;25.02;22.38;;;-0.50;99.90;;;;;;3138423;28;20029;-76
2024/01/18 01:03:45;;;;;;;31.48;25.40;;;-1.50;99.90;;;;;;3128637;28;20033;-74
2024/01/18 01:05:15;;;;;;;22.73;20.55;;;-0.80;99.90;;;;;;3126266;28;20053;-74
2024/01/18 01:06:46;;;;;;;30.65;22.75;;;-1.50;99.90;;;;;;3130802;28;20055;-74
2024/01/18 01:08:17;;;;;;;25.75;23.45;;;-1.50;99.90;;;;;;3142704;28;20063;-74
2024/01/18 01:09:48;;;;;;;27.42;23.50;;;-1.50;99.90;;;;;;3135661;28;20033;-74
2024/01/18 01:11:20;;;;;;;27.42;24.60;;;-1.50;99.90;;;;;;3138148;28;20094;-74
2024/01/18 01:12:51;;;;;;;24.17;21.65;;;-0.40;99.90;;;;;;3135769;28;20196;-73
2024/01/18 01:14:22;;;;;;;24.60;21.70;;;-1.50;99.90;;;;;;3141650;28;20118;-73
2024/01/18 01:15:53;;;;;;;25.13;22.45;;;-1.50;99.90;;;;;;3129994;28;20036;-74
2024/01/18 01:17:24;;;;;;;26.05;21.73;;;-1.40;99.90;;;;;;3134388;28;20093;-75
2024/01/18 01:18:55;;;;;;;25.58;22.60;;;-1.50;99.90;;;;;;3130718;28;20021;-73
2024/01/18 01:20:25;;;;;;;27.95;24.02;;;-0.30;99.90;;;;;;3136470;28;20021;-73
2024/01/18 01:21:56;;;;;;;25.38;22.23;;;-1.50;99.90;;;;;;3130506;28;20272;-74
2024/01/18 01:23:27;;;;;;;22.65;20.52;;;-1.50;99.90;;;;;;3129045;28;20029;-73
2024/01/18 01:24:58;;;;;;;31.02;24.52;;;-1.40;99.90;;;;;;3130165;28;20017;-73
2024/01/18 01:26:29;;;;;;;21.67;19.58;;;-1.50;99.90;;;;;;3130441;28;20079;-73
2024/01/18 01:27:59;;;;;;;27.73;24.90;;;-1.30;99.90;;;;;;3130115;28;20299;-73
2024/01/18 01:29:30;;;;;;;24.25;21.75;;;-1.10;99.90;;;;;;3130147;28;20092;-73
2024/01/18 01:31:02;;;;;;;21.95;19.67;;;-1.50;99.90;;;;;;3130382;28;20129;-74
2024/01/18 01:32:33;;;;;;;22.83;19.83;;;-1.50;99.90;;;;;;3137306;28;20036;-73
2024/01/18 01:34:03;;;;;;;29.02;24.30;;;-1.50;99.90;;;;;;3118496;28;20034;-73
2024/01/18 01:35:34;;;;;;;27.42;24.50;;;-0.80;99.90;;;;;;3129685;28;20025;-74
2024/01/18 01:37:05;;;;;;;29.25;23.38;;;-1.60;99.90;;;;;;3105352;28;20097;-73
2024/01/18 01:38:36;;;;;;;26.85;22.65;;;-1.60;99.90;;;;;;3122094;28;20206;-74
2024/01/18 01:40:07;;;;;;;26.58;23.80;;;-1.60;99.90;;;;;;3125247;28;20021;-73
2024/01/18 01:41:38;;;;;;;22.33;19.67;;;-1.60;99.90;;;;;;3130637;28;20030;-73
2024/01/18 01:43:10;;;;;;;26.92;20.20;;;-1.30;99.90;;;;;;3129328;28;20025;-74
2024/01/18 01:44:40;;;;;;;22.77;19.05;;;-1.60;99.90;;;;;;3130524;28;20032;-74
2024/01/18 01:46:12;;;;;;;24.23;21.08;;;-0.80;99.90;;;;;;3135387;28;20096;-73
2024/01/18 01:47:43;;;;;;;25.08;21.77;;;-1.40;99.90;;;;;;3125547;28;20026;-73
2024/01/18 01:49:14;;;;;;;24.23;21.83;;;-1.60;99.90;;;;;;3138643;28;20067;-73
2024/01/18 01:50:47;;;;;;;25.23;21.45;;;-1.50;99.90;;;;;;3138638;28;20235;-73
2024/01/18 01:52:18;;;;;;;29.35;23.13;;;-1.60;99.90;;;;;;3129688;28;20030;-73
2024/01/18 01:53:49;;;;;;;27.35;22.23;;;-1.60;99.90;;;;;;3123300;28;20075;-73
2024/01/18 01:55:20;;;;;;;23.55;21.40;;;-1.60;99.90;;;;;;3130311;28;20060;-74
2024/01/18 01:56:54;;;;;;;29.75;21.45;;;-1.40;99.90;;;;;;3117468;28;20029;-72
2024/01/18 01:58:25;;;;;;;27.52;20.88;;;-0.60;99.90;;;;;;3125966;28;20033;-73
2024/01/18 01:59:56;;;;;;;24.20;20.27;;;-1.60;99.90;;;;;;3129806;28;20021;-73
2024/01/18 02:01:27;;;;;;;26.48;21.75;;;-1.60;99.90;;;;;;3150119;28;20019;-73
2024/01/18 02:02:58;;;;;;;22.58;20.17;;;-1.60;99.90;;;;;;3120039;28;20014;-74
2024/01/18 02:04:30;;;;;;;25.73;23.05;;;-1.60;99.90;;;;;;3125192;28;20092;-74
2024/01/18 02:06:02;;;;;;;23.80;21.23;;;-1.60;99.90;;;;;;3113272;28;20021;-73
2024/01/18 02:07:36;;;;;;;26.55;23.05;;;-1.60;99.90;;;;;;3121856;28;20031;-74
2024/01/18 02:09:07;;;;;;;22.65;20.60;;;-1.60;99.90;;;;;;3125616;28;20025;-73
2024/01/18 02:10:38;;;;;;;27.00;22.08;;;-1.60;99.90;;;;;;3113435;28;20181;-73
2024/01/18 02:12:10;;;;;;;27.02;23.98;;;-0.80;99.90;;;;;;3133591;28;20048;-74
2024/01/18 02:13:42;;;;;;;24.70;22.08;;;-0.70;99.90;;;;;;3114483;28;20026;-73
2024/01/18 02:15:12;;;;;;;23.70;21.40;;;-0.70;99.90;;;;;;3125464;28;20029;-73
2024/01/18 02:16:43;;;;;;;22.80;20.38;;;-1.70;99.90;;;;;;3125478;28;20095;-74
2024/01/18 02:18:14;;;;;;;24.33;20.70;;;-1.70;99.90;;;;;;3125256;28;20025;-73
2024/01/18 02:19:45;;;;;;;30.33;24.65;;;-1.70;99.90;;;;;;3129886;28;20029;-74
2024/01/18 02:21:16;;;;;;;26.17;23.48;;;-1.00;99.90;;;;;;3129166;28;20072;-73
2024/01/18 02:22:48;;;;;;;24.08;21.70;;;-1.70;99.90;;;;;;3115707;28;20029;-73
2024/01/18 02:24:24;;;;;;;27.02;23.42;;;-1.70;99.90;;;;;;3117012;28;20029;-74
2024/01/18 02:25:55;;;;;;;26.65;23.20;;;-1.70;99.90;;;;;;3117946;28;20100;-73
2024/01/18 02:27:26;;;;;;;23.98;21.63;;;-1.70;99.90;;;;;;3129422;28;20037;-74
2024/01/18 02:28:57;;;;;;;26.65;21.23;;;-1.40;99.90;;;;;;3148769;28;20230;-73
2024/01/18 02:30:28;;;;;;;27.40;22.95;;;-1.50;99.90;;;;;;3137786;28;20029;-73
2024/01/18 02:31:59;;;;;;;25.63;22.77;;;-1.80;99.90;;;;;;3137337;28;20210;-74
2024/01/18 02:33:32;;;;;;;26.58;21.17;;;-1.80;99.90;;;;;;3129694;28;20071;-73
2024/01/18 02:35:04;;;;;;;26.67;23.63;;;-1.80;99.90;;;;;;3129008;28;20029;-73
2024/01/18 02:36:35;;;;;;;27.67;24.75;;;-1.80;99.90;;;;;;3129842;28;20017;-74
2024/01/18 02:38:05;;;;;;;26.35;23.50;;;-0.90;99.90;;;;;;3141320;28;20040;-73
2024/01/18 02:39:36;;;;;;;26.30;23.55;;;-1.80;99.90;;;;;;3141327;28;20029;-72
2024/01/18 02:41:07;;;;;;;25.13;22.42;;;-1.80;99.90;;;;;;3129033;28;20307;-74
2024/01/18 02:42:38;;;;;;;22.00;19.88;;;-1.00;99.90;;;;;;3148646;28;20103;-73
2024/01/18 02:44:09;;;;;;;22.38;19.75;;;-0.70;99.90;;;;;;3120732;28;20026;-74
2024/01/18 02:45:40;;;;;;;21.60;19.38;;;-1.20;99.90;;;;;;3125661;28;20029;-73
2024/01/18 02:47:15;;;;;;;21.40;19.08;;;-1.30;99.90;;;;;;3141470;28;20088;-73
2024/01/18 02:48:46;;;;;;;29.67;24.02;;;-1.10;99.90;;;;;;3120219;28;20053;-73
2024/01/18 02:50:17;;;;;;;26.27;23.63;;;-1.80;99.90;;;;;;3125340;28;20045;-73
2024/01/18 02:51:48;;;;;;;27.33;22.30;;;-1.90;99.90;;;;;;3130064;28;20029;-73
2024/01/18 02:53:20;;;;;;;24.88;21.98;;;-1.90;99.90;;;;;;3141354;28;20059;-73
2024/01/18 02:54:51;;;;;;;23.83;21.48;;;-1.90;99.90;;;;;;3133736;28;20067;-73
2024/01/18 02:56:22;;;;;;;24.63;22.58;;;-1.90;99.90;;;;;;3129723;28;20097;-74
2024/01/18 02:57:53;;;;;;;24.15;21.48;;;-1.90;99.90;;;;;;3141536;28;20370;-73
2024/01/18 02:59:24;;;;;;;25.63;22.70;;;-1.90;99.90;;;;;;3129420;28;20026;-73
2024/01/18 03:00:55;;;;;;;27.85;24.58;;;-1.30;99.90;;;;;;3129215;28;20099;-73
2024/01/18 03:02:26;;;;;;;25.63;21.45;;;-1.90;99.90;;;;;;3129887;28;20056;-73
2024/01/18 03:03:57;;;;;;;24.90;22.17;;;-1.90;99.90;;;;;;3139698;28;20078;-73
2024/01/18 03:05:27;;;;;;;34.22;21.75;;;-1.90;99.90;;;;;;3134018;28;20025;-73
2024/01/18 03:06:58;;;;;;;28.80;24.08;;;-1.90;99.90;;;;;;3129947;28;20029;-72
2024/01/18 03:08:29;;;;;;;24.50;21.80;;;-1.90;99.90;;;;;;3130534;28;20266;-75
2024/01/18 03:10:00;;;;;;;26.70;23.95;;;-1.90;99.90;;;;;;3129347;28;20033;-73
2024/01/18 03:11:31;;;;;;;30.98;22.88;;;-1.20;99.90;;;;;;3104424;28;20138;-73
2024/01/18 03:13:02;;;;;;;24.10;21.42;;;-1.90;99.90;;;;;;3103680;28;20022;-73
2024/01/18 03:14:33;;;;;;;25.65;23.13;;;-1.90;99.90;;;;;;3120705;28;20022;-73
2024/01/18 03:16:04;;;;;;;25.70;23.00;;;-1.90;99.90;;;;;;3121345;28;20311;-73
2024/01/18 03:17:35;;;;;;;26.98;24.05;;;-2.00;99.90;;;;;;3117363;28;20081;-73
2024/01/18 03:19:06;;;;;;;24.65;22.20;;;-1.90;99.90;;;;;;3116520;28;20034;-73
2024/01/18 03:20:37;;;;;;;24.27;21.88;;;-2.00;99.90;;;;;;3117122;28;20262;-73
2024/01/18 03:22:08;;;;;;;28.98;23.55;;;-1.90;99.90;;;;;;3116285;28;20129;-73
2024/01/18 03:23:38;;;;;;;26.85;24.00;;;-1.40;99.90;;;;;;3124954;28;20033;-74
2024/01/18 03:25:09;;;;;;;25.88;23.23;;;-0.90;99.90;;;;;;3116548;28;20024;-73
2024/01/18 03:26:40;;;;;;;25.67;23.02;;;-1.60;99.90;;;;;;3117062;28;20042;-73
2024/01/18 03:28:11;;;;;;;26.77;24.17;;;-1.50;99.90;;;;;;3128315;28;20029;-74
2024/01/18 03:29:41;;;;;;;26.20;23.23;;;-1.90;99.90;;;;;;3116152;28;20231;-73
2024/01/18 03:31:12;;;;;;;25.98;21.80;;;-2.00;99.90;;;;;;3117133;28;20041;-73
2024/01/18 03:32:43;;;;;;;24.85;20.73;;;-1.50;99.90;;;;;;3126781;28;20052;-74
2024/01/18 03:34:14;;;;;;;27.23;24.58;;;-2.00;99.90;;;;;;3140589;28;20048;-73
2024/01/18 03:35:45;;;;;;;24.90;22.48;;;-2.00;99.90;;;;;;3139559;28;20242;-73
2024/01/18 03:37:16;;;;;;;24.77;22.25;;;-2.10;99.90;;;;;;3141113;28;20020;-73
2024/01/18 03:38:47;;;;;;;28.33;25.27;;;-2.00;99.90;;;;;;3140904;28;20084;-73
2024/01/18 03:40:17;;;;;;;25.77;22.92;;;-2.00;99.90;;;;;;3141618;28;20024;-73
2024/01/18 03:41:48;;;;;;;23.88;21.60;;;-2.00;99.90;;;;;;3140977;28;20025;-73
2024/01/18 03:43:19;;;;;;;25.40;22.80;;;-2.10;99.90;;;;;;3128457;28;20021;-74
2024/01/18 03:44:50;;;;;;;24.23;21.83;;;-2.10;99.90;;;;;;3120533;28;20030;-73
2024/01/18 03:46:20;;;;;;;23.42;21.13;;;-2.10;99.90;;;;;;3136121;28;20401;-74
2024/01/18 03:47:51;;;;;;;27.27;23.48;;;-2.10;99.90;;;;;;3140798;28;20056;-73
2024/01/18 03:49:22;;;;;;;26.10;23.27;;;-2.10;99.90;;;;;;3137693;28;20037;-74
2024/01/18 03:50:53;;;;;;;27.63;22.02;;;-2.10;99.90;;;;;;3153272;28;20060;-74
2024/01/18 03:52:24;;;;;;;27.85;23.25;;;-2.10;99.90;;;;;;3132587;28;20036;-73
2024/01/18 03:53:54;;;;;;;24.77;22.38;;;-2.20;99.90;;;;;;3147579;28;20017;-74
2024/01/18 03:55:25;;;;;;;26.77;23.58;;;-2.10;99.90;;;;;;3137175;28;20088;-73
2024/01/18 03:56:56;;;;;;;25.92;23.55;;;-1.50;99.90;;;;;;3116255;28;20022;-74
2024/01/18 03:58:27;;;;;;;25.73;23.30;;;-2.10;99.90;;;;;;3132485;28;20043;-73
2024/01/18 03:59:58;;;;;;;24.95;22.42;;;-2.10;99.90;;;;;;3107742;28;20366;-73
2024/01/18 04:01:32;;;;;;;24.75;22.15;;;-2.10;99.90;;;;;;3120968;28;20025;-73
2024/01/18 04:03:03;;;;;;;28.05;24.58;;;-2.10;99.90;;;;;;3127552;28;20325;-73
2024/01/18 04:04:34;;;;;;;34.00;26.70;;;-2.10;99.90;;;;;;3128660;28;20029;-73
2024/01/18 04:06:05;;;;;;;32.22;27.58;;;-2.10;99.90;;;;;;3128910;28;20027;-74
2024/01/18 04:07:38;;;;;;;30.30;26.75;;;-2.10;99.90;;;;;;3129130;28;20202;-73
2024/01/18 04:09:08;;;;;;;33.15;27.45;;;-2.10;99.90;;;;;;3128390;28;20108;-76
2024/01/18 04:10:39;;;;;;;33.30;25.08;;;-2.10;99.90;;;;;;3124755;28;20041;-74
2024/01/18 04:12:10;;;;;;;31.02;27.77;;;-2.10;99.90;;;;;;3112117;28;20030;-74
2024/01/18 04:13:41;;;;;;;34.20;25.48;;;-2.10;99.90;;;;;;3115014;28;20034;-75
2024/01/18 04:15:12;;;;;;;31.83;28.48;;;-2.20;99.90;;;;;;3129873;28;20069;-75
2024/01/18 04:16:44;;;;;;;32.55;29.05;;;-1.00;99.90;;;;;;3130949;28;20025;-75
2024/01/18 04:18:14;;;;;;;27.27;24.55;;;-2.20;99.90;;;;;;3136850;28;20060;-73
2024/01/18 04:19:45;;;;;;;31.48;25.30;;;-2.20;99.90;;;;;;3133045;28;20199;-73
2024/01/18 04:21:16;;;;;;;36.28;29.08;;;-2.00;99.90;;;;;;3129255;28;20030;-72
2024/01/18 04:22:47;;;;;;;33.97;27.15;;;-2.20;99.90;;;;;;3127948;28;20033;-72
2024/01/18 04:24:18;;;;;;;30.52;27.33;;;-2.20;99.90;;;;;;3128311;28;20025;-75
2024/01/18 04:25:52;;;;;;;31.20;24.50;;;-2.30;99.90;;;;;;3128136;28;20024;-72
2024/01/18 04:27:22;;;;;;;30.88;23.88;;;-2.30;99.90;;;;;;3136884;28;20033;-74
2024/01/18 04:28:53;;;;;;;28.85;25.42;;;-2.30;99.90;;;;;;3139286;28;20039;-73
2024/01/18 04:30:24;;;;;;;30.67;26.75;;;-2.30;99.90;;;;;;3141512;28;20120;-73
2024/01/18 04:31:55;;;;;;;28.67;25.88;;;-2.30;99.90;;;;;;3137037;28;20033;-73
2024/01/18 04:33:27;;;;;;;29.15;26.20;;;-1.90;99.90;;;;;;3140152;28;20358;-74
2024/01/18 04:34:58;;;;;;;29.20;26.13;;;-2.20;99.90;;;;;;3140640;28;20029;-72
2024/01/18 04:36:28;;;;;;;33.10;26.38;;;-2.40;99.90;;;;;;3140586;28;20093;-72
2024/01/18 04:37:59;;;;;;;31.15;22.55;;;-1.50;99.90;;;;;;3128805;28;20029;-72
2024/01/18 04:39:30;;;;;;;32.03;25.33;;;-2.40;99.90;;;;;;3124151;28;20037;-72
2024/01/18 04:41:01;;;;;;;34.90;27.05;;;-2.40;99.90;;;;;;3128778;28;20078;-74
2024/01/18 04:42:31;;;;;;;28.52;25.33;;;-2.40;99.90;;;;;;3139007;28;20100;-73
2024/01/18 04:44:02;;;;;;;31.17;27.77;;;-2.40;99.90;;;;;;3124176;28;20030;-75
2024/01/18 04:45:33;;;;;;;27.42;24.63;;;-2.40;99.90;;;;;;3128632;28;20222;-75
2024/01/18 04:47:04;;;;;;;29.92;26.75;;;-2.40;99.90;;;;;;3131986;28;20052;-75
2024/01/18 04:48:36;;;;;;;30.15;27.38;;;-2.30;99.90;;;;;;3125406;28;20254;-74
2024/01/18 04:50:09;;;;;;;32.35;28.98;;;-1.50;99.90;;;;;;3142708;28;20303;-75
2024/01/18 04:51:40;;;;;;;35.03;29.00;;;-2.30;99.90;;;;;;3130315;28;20080;-72
2024/01/18 04:53:11;;;;;;;35.17;31.40;;;-2.20;99.90;;;;;;3113820;28;20030;-73
2024/01/18 04:54:41;;;;;;;31.17;27.90;;;-2.10;99.90;;;;;;3134790;28;20055;-73
2024/01/18 04:56:12;;;;;;;37.80;30.30;;;-2.30;99.90;;;;;;3122250;28;20066;-75
2024/01/18 04:57:44;;;;;;;32.90;27.90;;;-1.50;99.90;;;;;;3122388;28;20024;-74
2024/01/18 04:59:14;;;;;;;30.70;26.77;;;-2.30;99.90;;;;;;3134975;28;20036;-72
2024/01/18 05:00:45;;;;;;;34.38;28.40;;;-2.00;99.90;;;;;;3130672;28;20307;-73
2024/01/18 05:02:16;;;;;;;47.50;29.02;;;-2.30;99.90;;;;;;3130900;28;20017;-73
2024/01/18 05:03:47;;;;;;;33.40;28.75;;;-2.30;99.90;;;;;;3118129;28;20092;-72
2024/01/18 05:05:19;;;;;;;31.45;28.33;;;-2.30;99.90;;;;;;3118123;28;20097;-77
2024/01/18 05:06:50;;;;;;;31.95;28.77;;;-2.30;99.90;;;;;;3138790;28;20017;-74
2024/01/18 05:08:21;;;;;;;32.47;29.15;;;-2.30;99.90;;;;;;3135914;28;20299;-73
2024/01/18 05:09:51;;;;;;;34.13;30.17;;;-1.90;99.90;;;;;;3130262;28;20049;-72
2024/01/18 05:11:22;;;;;;;31.90;28.80;;;-2.30;99.90;;;;;;3138657;28;20041;-74
2024/01/18 05:12:53;;;;;;;31.75;28.67;;;-2.30;99.90;;;;;;3134347;28;20036;-73
2024/01/18 05:14:24;;;;;;;30.80;27.60;;;-1.60;99.90;;;;;;3138389;28;20031;-73
2024/01/18 05:15:56;;;;;;;32.38;28.67;;;-1.20;99.90;;;;;;3130008;28;20088;-75
2024/01/18 05:17:46;;;;;;;39.72;28.58;;;-2.30;99.90;;;;;;3131171;28;20033;-73
2024/01/18 05:19:18;;;;;;;33.65;26.23;;;-1.20;99.90;;;;;;3143218;28;20021;-72
2024/01/18 05:20:49;;;;;;;34.25;29.25;;;-2.40;99.90;;;;;;3135343;28;20029;-74
2024/01/18 05:22:19;;;;;;;30.38;25.27;;;-2.30;99.90;;;;;;3142460;28;20079;-73
2024/01/18 05:23:50;;;;;;;33.70;28.73;;;-2.40;99.90;;;;;;3133724;28;20315;-73
2024/01/18 05:25:21;;;;;;;31.00;27.35;;;-2.30;99.90;;;;;;3118027;28;20067;-73
2024/01/18 05:26:52;;;;;;;31.70;28.55;;;-2.40;99.90;;;;;;3126549;28;20040;-73
2024/01/18 05:28:23;;;;;;;33.08;29.75;;;-2.30;99.90;;;;;;3141932;28;20342;-73
2024/01/18 05:29:54;;;;;;;29.65;26.55;;;-2.40;99.90;;;;;;3134738;28;20023;-73
2024/01/18 05:31:25;;;;;;;36.05;29.10;;;-2.40;99.90;;;;;;3129983;28;20034;-74
2024/01/18 05:32:56;;;;;;;35.95;29.58;;;-2.50;99.90;;;;;;3129355;28;20025;-73
2024/01/18 05:34:27;;;;;;;31.27;25.90;;;-2.50;99.90;;;;;;3150788;28;20016;-75
2024/01/18 05:35:58;;;;;;;36.58;26.20;;;-2.50;99.90;;;;;;3139041;28;20045;-73
2024/01/18 05:37:28;;;;;;;33.00;27.83;;;-2.60;99.90;;;;;;3129929;28;20096;-73
2024/01/18 05:38:59;;;;;;;31.15;26.55;;;-1.50;99.90;;;;;;3130356;28;20032;-75
2024/01/18 05:40:30;;;;;;;31.83;28.58;;;-2.70;99.90;;;;;;3130679;28;20069;-75
2024/01/18 05:42:02;;;;;;;32.60;26.30;;;-1.70;99.90;;;;;;3136456;28;20136;-75
2024/01/18 05:43:33;;;;;;;34.47;27.70;;;-2.90;99.90;;;;;;3127437;28;20206;-76
2024/01/18 05:45:05;;;;;;;29.60;26.85;;;-3.00;99.90;;;;;;3129905;28;20237;-75
2024/01/18 05:46:37;;;;;;;28.85;26.00;;;-3.10;99.90;;;;;;3126181;28;20026;-74
2024/01/18 05:48:08;;;;;;;29.15;23.38;;;-2.30;99.90;;;;;;3128626;28;20315;-75
2024/01/18 05:49:39;;;;;;;32.00;26.10;;;-3.30;99.90;;;;;;3117266;28;20103;-75
2024/01/18 05:51:10;;;;;;;28.58;25.55;;;-3.40;99.90;;;;;;3108453;28;20026;-75
2024/01/18 05:52:41;;;;;;;37.75;29.60;;;-3.40;99.90;;;;;;3121471;28;20063;-77
2024/01/18 05:54:12;;;;;;;31.63;28.27;;;-3.40;99.90;;;;;;3131278;28;20021;-75
2024/01/18 05:55:43;;;;;;;31.65;28.23;;;-3.40;99.90;;;;;;3129381;28;20034;-76
2024/01/18 05:57:14;;;;;;;32.22;28.83;;;-3.40;99.90;;;;;;3125906;28;20212;-75
2024/01/18 05:58:45;;;;;;;33.10;29.55;;;-3.30;99.90;;;;;;3127136;28;20319;-75
2024/01/18 06:00:16;;;;;;;34.10;30.52;;;-3.30;99.90;;;;;;3128721;28;20226;-76
2024/01/18 06:01:46;;;;;;;34.78;30.98;;;-3.30;99.90;;;;;;3113118;28;20315;-76
2024/01/18 06:03:18;;;;;;;34.80;31.00;;;;;;;;;;3124767;28;20028;-75
2024/01/18 06:04:49;;;;;;;29.83;26.63;;;-3.60;99.90;;;;;;3133670;28;20032;-75
2024/01/18 06:06:20;;;;;;;33.35;29.85;;;-3.70;99.90;;;;;;3133009;28;20214;-76
2024/01/18 06:07:51;;;;;;;32.00;28.45;;;-3.80;99.90;;;;;;3129464;28;20048;-74
2024/01/18 06:09:22;;;;;;;33.75;30.30;;;-3.90;99.90;;;;;;3135249;28;20040;-76
2024/01/18 06:10:53;;;;;;;31.52;27.23;;;-4.00;99.90;;;;;;3146128;28;20342;-73
2024/01/18 06:12:24;;;;;;;31.88;28.33;;;-4.00;99.90;;;;;;3136755;28;20017;-75
2024/01/18 06:13:56;;;;;;;32.10;27.13;;;-4.20;99.90;;;;;;3128994;28;20033;-77
2024/01/18 06:15:28;;;;;;;28.88;25.80;;;-4.30;99.90;;;;;;3129129;28;20033;-75
2024/01/18 06:16:59;;;;;;;31.17;27.65;;;-4.30;99.90;;;;;;3125317;28;20032;-78
2024/01/18 06:18:30;;;;;;;31.52;28.17;;;-4.40;99.90;;;;;;3116848;28;20064;-75
2024/01/18 06:20:01;;;;;;;33.15;29.35;;;-4.40;99.90;;;;;;3127791;28;20083;-79
2024/01/18 06:21:32;;;;;;;31.60;25.85;;;-4.50;99.90;;;;;;3144600;28;20029;-75
2024/01/18 06:23:03;;;;;;;28.15;24.40;;;-4.60;99.90;;;;;;3102389;28;20308;-76
2024/01/18 06:24:34;;;;;;;36.72;28.25;;;-4.70;99.90;;;;;;3116820;28;20030;-77
2024/01/18 06:26:10;;;;;;;34.17;29.45;;;-4.70;99.90;;;;;;3123778;28;20030;-77
2024/01/18 06:27:41;;;;;;;31.40;27.00;;;-4.20;99.90;;;;;;3128338;28;20028;-77
2024/01/18 06:29:12;;;;;;;35.38;25.77;;;;;;;;;;3127001;28;20366;-76
2024/01/18 06:30:44;;;;;;;28.52;25.60;;;-4.90;99.90;;;;;;3148506;28;20108;-78
2024/01/18 06:32:14;;;;;;;31.02;26.20;;;-5.00;99.90;;;;;;3131664;28;20248;-76
2024/01/18 06:33:46;;;;;;;38.92;25.75;;;-5.00;99.90;;;;;;3129106;28;20048;-77
2024/01/18 06:35:17;;;;;;;30.20;25.08;;;-5.00;99.90;;;;;;3149696;28;20020;-78
2024/01/18 06:36:48;;;;;;;36.90;28.20;;;-5.00;99.90;;;;;;3132227;28;20291;-76
2024/01/18 06:38:22;;;;;;;30.10;26.13;;;-4.90;99.90;;;;;;3118568;28;20030;-76
2024/01/18 06:39:53;;;;;;;29.42;26.25;;;-4.90;99.90;;;;;;3122899;28;20033;-75
2024/01/18 06:41:25;;;;;;;33.10;27.77;;;-4.00;99.90;;;;;;3133131;28;20104;-75
2024/01/18 06:42:56;;;;;;;27.65;24.80;;;-5.10;99.90;;;;;;3124866;28;20044;-75
2024/01/18 06:44:26;;;;;;;32.92;29.08;;;-5.10;99.90;;;;;;3108528;28;20208;-75
2024/01/18 06:45:57;;;;;;;29.70;26.65;;;-5.10;99.90;;;;;;3136664;28;20028;-75
2024/01/18 06:47:28;;;;;;;30.73;27.65;;;-5.10;99.90;;;;;;3139953;28;20048;-76
2024/01/18 06:49:00;;;;;;;32.35;26.23;;;-4.50;99.90;;;;;;3128969;28;20239;-76
2024/01/18 06:50:31;;;;;;;31.88;28.98;;;-4.30;99.90;;;;;;3129608;28;20041;-75
2024/01/18 06:52:02;;;;;;;35.17;31.38;;;-5.10;99.90;;;;;;3129497;28;20017;-76
2024/01/18 06:53:33;;;;;;;31.52;26.67;;;-5.20;99.90;;;;;;3126843;28;20113;-76
2024/01/18 06:55:05;;;;;;;33.47;29.55;;;-5.20;99.90;;;;;;3129735;28;20077;-77
2024/01/18 06:56:37;;;;;;;32.80;29.40;;;-5.30;99.90;;;;;;3129661;28;20033;-76
2024/01/18 06:58:08;;;;;;;35.28;29.60;;;-5.40;99.90;;;;;;3127998;28;20029;-76
2024/01/18 06:59:48;;;;;;;30.83;27.52;;;-4.70;99.90;;;;;;3124542;28;20041;-79
2024/01/18 07:01:19;;;;;;;31.85;28.50;;;-5.30;99.90;;;;;;3125422;28;20028;-78
2024/01/18 07:02:53;;;;;;;35.35;29.40;;;-5.40;99.90;;;;;;3123684;28;20018;-77
2024/01/18 07:04:25;;;;;;;36.72;32.25;;;-5.20;99.90;;;;;;3125421;28;20075;-76
2024/01/18 07:05:56;;;;;;;35.10;31.45;;;-5.30;99.90;;;;;;3100831;28;20292;-77
2024/01/18 07:07:27;;;;;;;33.10;29.63;;;-5.20;99.90;;;;;;3120526;28;20319;-76
2024/01/18 07:08:58;;;;;;;35.72;29.63;;;-5.10;99.90;;;;;;3129307;28;20033;-76
2024/01/18 07:10:29;;;;;;;32.42;28.98;;;-5.10;99.90;;;;;;3128265;28;20033;-77
2024/01/18 07:11:59;;;;;;;38.05;31.27;;;-5.10;99.90;;;;;;3128915;28;20033;-76
2024/01/18 07:13:31;;;;;;;34.65;29.65;;;-5.10;99.90;;;;;;3139113;28;20020;-76
2024/01/18 07:15:07;;;;;;;35.35;31.73;;;-5.00;99.90;;;;;;3120315;28;20024;-75
2024/01/18 07:16:38;;;;;;;36.67;30.50;;;-5.10;99.90;;;;;;3137592;28;20025;-76
2024/01/18 07:18:09;;;;;;;42.55;32.03;;;-5.20;99.90;;;;;;3128543;28;20512;-75
2024/01/18 07:19:40;;;;;;;37.53;29.38;;;-5.10;99.90;;;;;;3124846;28;20242;-76
2024/01/18 07:21:11;;;;;;;36.55;32.63;;;-5.00;99.90;;;;;;3149271;28;20029;-77
2024/01/18 07:22:42;;;;;;;40.45;33.17;;;-5.00;99.90;;;;;;3131121;28;20469;-75
2024/01/18 07:24:12;;;;;;;40.45;33.10;;;-5.00;99.90;;;;;;3129223;28;20065;-76
2024/01/18 07:25:43;;;;;;;37.30;33.00;;;-5.10;99.90;;;;;;3129414;28;20307;-76
2024/01/18 07:27:14;;;;;;;30.83;27.17;;;-5.10;99.90;;;;;;3129933;28;20287;-76
2024/01/18 07:28:45;;;;;;;35.65;31.83;;;-5.00;99.90;;;;;;3128873;28;20029;-75
2024/01/18 07:30:16;;;;;;;34.95;30.90;;;-4.90;99.90;;;;;;3129304;28;20057;-80
2024/01/18 07:31:49;;;;;;;37.92;33.67;;;-4.80;99.90;;;;;;3119569;28;20049;-75
2024/01/18 07:33:20;;;;;;;43.60;32.55;;;-4.60;99.90;;;;;;3146861;28;20028;-76
2024/01/18 07:34:51;;;;;;;34.30;30.33;;;-4.70;99.90;;;;;;3132251;28;20303;-77
2024/01/18 07:36:22;;;;;;;40.20;35.58;;;-4.70;99.90;;;;;;3123714;28;20009;-77
2024/01/18 07:37:52;;;;;;;35.95;31.98;;;-4.70;99.90;;;;;;3136751;28;20088;-77
2024/01/18 07:39:23;;;;;;;44.35;36.80;;;-4.80;99.90;;;;;;3132449;28;20385;-73
2024/01/18 07:40:54;;;;;;;39.90;31.30;;;-3.90;99.90;;;;;;3129333;28;20033;-74
2024/01/18 07:42:25;;;;;;;42.58;30.95;;;-4.80;99.90;;;;;;3140917;28;20025;-73